Fall Creek, Illinois
Current Conditions -  °F | °C
As of 9:54 PM on Tuesday 25 Nov 2014 (Local Time) from KUIN Reporting Station
Clear Clear  
Wind Chill: 26°   Ceiling: Unl
Heat Index: 26°   Visibility: 10mi
Dew Point: 19°   Wind: 3mph
Humidity: 75%   Direction: 160°SSE
Pressure: 30.15"   Gusts: NA
Location:  39.806°N, 91.2945°W
Report Text: KUIN 260354Z AUTO 16003KT 10SM CLR M03/M07 A3015 RMK AO2 SLP217 T10331072
Loading
Personal Weather Stations






























Interactive Weather Map New forecast layout! Learn more

10-Day Weather Forecast

Advertisements
Track Severe Weather on mobile